Time;durP1;ratioP1;P1;durP2;ratioP2;P2;SDS_P1;SDS_P2;PMS_P1;PMS_P2;Temp;Humidity;BMP_temperature;BMP_pressure;BME280_temperature;BME280_humidity;BME280_pressure;Samples;Min_cycle;Max_cycle;Signal;HPM_P1;HPM_P2
2024/04/03 00:02:12;;;;;;;4.00;1.90;;;;;;;9.79;74.38;98788.58;131338;1253;106332;-84
2024/04/03 00:05:17;;;;;;;4.00;2.30;;;;;;;9.85;74.05;98789.78;131342;1250;108067;-83
2024/04/03 00:08:22;;;;;;;6.00;2.60;;;;;;;9.92;74.04;98789.70;131268;1251;106468;-83
2024/04/03 00:11:28;;;;;;;3.90;2.20;;;;;;;9.96;73.59;98782.81;131334;1253;107892;-84
2024/04/03 00:14:33;;;;;;;4.50;2.10;;;;;;;9.97;73.53;98781.81;131282;1253;106241;-85
2024/04/03 00:17:39;;;;;;;5.80;2.60;;;;;;;9.97;73.68;98783.17;131357;1251;107448;-84
2024/04/03 00:20:44;;;;;;;4.70;2.30;;;;;;;9.97;73.51;98785.31;131515;1253;107703;-84
2024/04/03 00:23:49;;;;;;;3.90;1.90;;;;;;;9.97;73.68;98791.57;131292;1251;107807;-86
2024/04/03 00:26:54;;;;;;;4.60;1.80;;;;;;;9.99;73.44;98787.25;131362;1250;106127;-85
2024/04/03 00:30:00;;;;;;;4.00;2.30;;;;;;;10.00;73.58;98791.86;131552;1253;106913;-84
2024/04/03 00:33:06;;;;;;;3.40;1.90;;;;;;;10.00;73.39;98789.11;131559;1253;108726;-84
2024/04/03 00:36:11;;;;;;;4.70;1.90;;;;;;;10.00;73.49;98788.17;131570;1254;108060;-85
2024/04/03 00:39:16;;;;;;;2.60;1.50;;;;;;;10.00;73.64;98784.80;131384;1253;106443;-84
2024/04/03 00:42:22;;;;;;;3.40;1.70;;;;;;;10.01;73.20;98790.55;131440;1251;106604;-84
2024/04/03 00:45:29;;;;;;;3.80;1.60;;;;;;;10.02;73.00;98789.67;131588;1251;107225;-85
2024/04/03 00:48:34;;;;;;;3.40;1.80;;;;;;;10.07;73.01;98793.74;131329;1251;107078;-84
2024/04/03 00:51:41;;;;;;;3.40;1.70;;;;;;;10.07;72.93;98790.02;131275;1250;108667;-84
2024/04/03 00:54:48;;;;;;;3.30;1.60;;;;;;;10.08;72.99;98793.14;131415;1253;106884;-83
2024/04/03 00:57:53;;;;;;;3.20;1.70;;;;;;;10.06;73.16;98792.29;131377;1253;106969;-83
2024/04/03 01:00:59;;;;;;;3.50;1.90;;;;;;;10.03;73.41;98789.77;131641;1250;106590;-85
2024/04/03 01:04:04;;;;;;;3.80;2.00;;;;;;;10.02;72.97;98790.90;131704;1251;107100;-86
2024/04/03 01:07:09;;;;;;;4.30;1.90;;;;;;;9.99;73.30;98797.52;131445;1251;107525;-83
2024/04/03 01:10:15;;;;;;;3.20;1.70;;;;;;;9.98;73.11;98790.16;131329;1253;107817;-84
2024/04/03 01:13:21;;;;;;;3.20;1.70;;;;;;;9.98;73.16;98790.42;131294;1250;108399;-84
2024/04/03 01:16:26;;;;;;;4.30;2.00;;;;;;;9.98;73.01;98791.42;131319;1253;109100;-84
2024/04/03 01:19:31;;;;;;;4.50;1.80;;;;;;;9.96;73.12;98798.08;131341;1254;105740;-84
2024/04/03 01:22:37;;;;;;;4.10;1.90;;;;;;;9.93;73.38;98792.91;131301;1253;107606;-84
2024/04/03 01:25:42;;;;;;;5.00;1.70;;;;;;;9.93;73.48;98792.98;131366;1251;106938;-83
2024/04/03 01:28:47;;;;;;;4.90;2.00;;;;;;;9.94;73.61;98789.03;131610;1250;106612;-84
2024/04/03 01:31:52;;;;;;;3.10;1.60;;;;;;;9.98;73.62;98790.15;131387;1251;108657;-84
2024/04/03 01:34:57;;;;;;;3.00;1.90;;;;;;;10.01;73.63;98782.23;131357;1250;108345;-84
2024/04/03 01:38:03;;;;;;;3.40;1.70;;;;;;;10.03;73.29;98778.73;131582;1253;107250;-83
2024/04/03 01:41:08;;;;;;;3.70;1.90;;;;;;;10.03;73.39;98777.88;131571;1253;107144;-84
2024/04/03 01:44:13;;;;;;;3.00;1.70;;;;;;;9.95;73.48;98777.20;131355;1253;106569;-84
2024/04/03 01:47:19;;;;;;;2.70;1.80;;;;;;;9.87;73.61;98784.71;131402;1251;107715;-86
2024/04/03 01:50:38;;;;;;;4.60;1.60;;;;;;;9.79;73.69;98782.35;131321;1251;108452;-83
2024/04/03 01:53:43;;;;;;;2.50;1.60;;;;;;;9.73;73.63;98784.48;131365;1254;106763;-84
2024/04/03 01:56:49;;;;;;;4.20;2.20;;;;;;;9.66;73.76;98781.31;131341;1251;106435;-83
2024/04/03 01:59:54;;;;;;;2.90;1.80;;;;;;;9.62;73.84;98783.80;131448;1253;106637;-83
2024/04/03 02:02:59;;;;;;;4.80;1.80;;;;;;;9.57;73.90;98780.33;131541;1253;107697;-84
2024/04/03 02:06:05;;;;;;;3.40;1.80;;;;;;;9.52;74.17;98783.59;131358;1253;107232;-83
2024/04/03 02:09:10;;;;;;;2.80;1.80;;;;;;;9.52;73.95;98777.92;131313;1263;108615;-83
2024/04/03 02:12:15;;;;;;;3.30;1.90;;;;;;;9.53;73.99;98783.67;131417;1253;108693;-83
2024/04/03 02:15:21;;;;;;;6.50;1.90;;;;;;;9.52;74.14;98787.02;131304;1250;107774;-83
2024/04/03 02:18:26;;;;;;;3.70;1.70;;;;;;;9.52;74.38;98793.16;131379;1253;106283;-84
2024/04/03 02:21:32;;;;;;;4.10;1.80;;;;;;;9.53;74.23;98791.36;131311;1251;107982;-83
2024/04/03 02:24:37;;;;;;;4.70;1.80;;;;;;;9.52;74.30;98780.25;131342;1250;108738;-84
2024/04/03 02:27:42;;;;;;;3.10;1.80;;;;;;;9.51;74.42;98784.06;131425;1253;108696;-84
2024/04/03 02:30:47;;;;;;;3.30;1.70;;;;;;;9.49;74.41;98782.14;131604;1253;108089;-84
2024/04/03 02:33:53;;;;;;;1.50;1.30;;;;;;;9.50;74.46;98782.08;131542;1250;106374;-84
2024/04/03 02:36:58;;;;;;;5.50;1.70;;;;;;;9.53;74.50;98779.73;131764;1253;108807;-87
2024/04/03 02:40:04;;;;;;;3.80;1.60;;;;;;;9.60;74.40;98770.81;131502;1250;107726;-87
2024/04/03 02:43:09;;;;;;;2.60;1.50;;;;;;;9.65;74.66;98776.55;131643;1252;107856;-84
2024/04/03 02:46:14;;;;;;;1.90;1.40;;;;;;;9.67;74.66;98776.90;131506;1253;108605;-84
2024/04/03 02:49:19;;;;;;;2.60;1.60;;;;;;;9.67;74.63;98767.41;131839;1253;109043;-84
2024/04/03 02:52:25;;;;;;;3.30;1.70;;;;;;;9.68;74.51;98769.30;131793;1253;107028;-84
2024/04/03 02:55:36;;;;;;;2.20;1.70;;;;;;;9.68;74.97;98766.86;131857;1250;106658;-84
2024/04/03 02:58:41;;;;;;;2.80;1.80;;;;;;;9.67;75.13;98765.34;131871;1251;108233;-83
2024/04/03 03:01:46;;;;;;;3.60;2.00;;;;;;;9.66;74.96;98759.20;131656;1251;107297;-83
2024/04/03 03:04:52;;;;;;;3.20;1.60;;;;;;;9.67;75.10;98760.89;131396;1253;108504;-84
2024/04/03 03:07:58;;;;;;;3.10;2.10;;;;;;;9.70;75.28;98761.75;131298;1250;106498;-83
2024/04/03 03:11:04;;;;;;;2.30;1.80;;;;;;;9.74;75.05;98759.16;131326;1253;107641;-84
2024/04/03 03:14:09;;;;;;;3.40;2.30;;;;;;;9.81;75.38;98763.61;131316;1253;106478;-83
2024/04/03 03:17:14;;;;;;;3.70;2.40;;;;;;;9.82;75.20;98761.88;131346;1253;107729;-83
2024/04/03 03:20:20;;;;;;;4.20;2.50;;;;;;;9.85;75.42;98760.87;131412;1250;107418;-85
2024/04/03 03:23:25;;;;;;;3.80;2.70;;;;;;;9.83;75.49;98757.46;131577;1251;107493;-83
2024/04/03 03:26:30;;;;;;;3.20;2.80;;;;;;;9.83;75.60;98764.84;131422;1253;107734;-83
2024/04/03 03:29:35;;;;;;;4.80;2.80;;;;;;;9.79;75.55;98757.08;131413;1251;108480;-83
2024/04/03 03:32:41;;;;;;;3.70;2.50;;;;;;;9.76;75.71;98755.20;131277;1251;107504;-85
2024/04/03 03:35:52;;;;;;;2.80;2.20;;;;;;;9.74;75.87;98756.27;131276;1253;107825;-83
2024/04/03 03:38:57;;;;;;;3.20;2.40;;;;;;;9.77;75.99;98761.76;131376;1253;108692;-83
2024/04/03 03:42:02;;;;;;;2.90;2.50;;;;;;;9.81;75.89;98761.52;131315;1253;106376;-83
2024/04/03 03:45:08;;;;;;;6.90;3.00;;;;;;;9.84;75.91;98765.08;131288;1253;107544;-83
2024/04/03 03:48:13;;;;;;;3.90;3.00;;;;;;;9.84;75.92;98762.55;131323;1253;107216;-84
2024/04/03 03:54:41;;;;;;;3.80;2.90;;;;;;;9.85;76.03;98770.46;131567;1253;107822;-83
2024/04/03 03:57:47;;;;;;;4.10;3.10;;;;;;;9.81;75.97;98765.61;131466;1251;106791;-84
2024/04/03 04:00:52;;;;;;;3.30;2.60;;;;;;;9.79;75.86;98770.55;131360;1250;107400;-83
2024/04/03 04:03:57;;;;;;;3.20;2.60;;;;;;;9.81;76.15;98772.08;131322;1252;107828;-83
2024/04/03 04:07:03;;;;;;;3.50;3.10;;;;;;;9.86;76.09;98763.10;131306;1251;108675;-83
2024/04/03 04:10:08;;;;;;;2.90;2.60;;;;;;;9.89;76.09;98762.73;131402;1253;108610;-83
2024/04/03 04:13:14;;;;;;;4.00;3.10;;;;;;;9.90;75.89;98757.92;131464;1250;107465;-83
2024/04/03 04:16:19;;;;;;;3.90;3.00;;;;;;;9.90;76.14;98753.65;131294;1249;108803;-83
2024/04/03 04:19:24;;;;;;;5.00;3.30;;;;;;;9.88;76.31;98747.02;131333;1253;107661;-83
2024/04/03 04:22:29;;;;;;;4.20;3.20;;;;;;;9.85;76.19;98748.41;131298;1249;107844;-82
2024/04/03 04:25:35;;;;;;;4.40;2.60;;;;;;;9.83;76.03;98745.05;131365;1253;106851;-83
2024/04/03 04:28:40;;;;;;;3.40;2.30;;;;;;;9.85;76.35;98745.05;131371;1251;107560;-83
2024/04/03 04:31:46;;;;;;;3.70;2.90;;;;;;;9.86;76.37;98747.23;131476;1253;107625;-83
2024/04/03 04:34:52;;;;;;;4.70;2.90;;;;;;;9.90;76.10;98749.63;131440;1254;106355;-83
2024/04/03 04:37:58;;;;;;;4.30;3.10;;;;;;;9.95;76.38;98747.90;131320;1251;108568;-83
2024/04/03 04:41:06;;;;;;;4.20;3.00;;;;;;;9.99;76.32;98757.77;131430;1253;107040;-83
2024/04/03 04:44:12;;;;;;;4.50;3.20;;;;;;;9.99;76.34;98754.51;131451;1254;108078;-84
2024/04/03 04:47:17;;;;;;;4.70;3.60;;;;;;;9.97;76.31;98754.77;131479;1250;108961;-84
2024/04/03 04:50:22;;;;;;;3.70;3.40;;;;;;;9.94;76.50;98749.70;131217;1250;106209;-83
2024/04/03 04:53:28;;;;;;;8.60;6.00;;;;;;;9.92;76.49;98748.43;131227;1250;106689;-83
2024/04/03 04:56:33;;;;;;;3.70;2.70;;;;;;;9.95;76.49;98746.36;131362;1266;106513;-83
2024/04/03 04:59:39;;;;;;;5.60;3.10;;;;;;;9.95;76.20;98747.58;131345;1254;107668;-84
2024/04/03 05:02:44;;;;;;;4.40;2.60;;;;;;;9.95;76.00;98745.42;131236;1256;107262;-84
2024/04/03 05:05:49;;;;;;;2.80;2.30;;;;;;;9.99;76.43;98748.48;131433;1250;107195;-84
2024/04/03 05:08:55;;;;;;;3.50;2.60;;;;;;;10.07;76.01;98749.64;131442;1250;107197;-84
2024/04/03 05:12:00;;;;;;;2.90;2.60;;;;;;;10.11;75.77;98747.71;131347;1254;107633;-83
2024/04/03 05:15:07;;;;;;;3.30;2.30;;;;;;;10.18;76.06;98749.93;131287;1254;105532;-83
2024/04/03 05:18:13;;;;;;;3.20;2.60;;;;;;;10.24;75.99;98752.57;131206;1254;107712;-84
2024/04/03 05:21:22;;;;;;;3.40;2.40;;;;;;;10.27;75.57;98750.22;131185;1254;107942;-84
2024/04/03 05:24:27;;;;;;;4.70;2.60;;;;;;;10.32;76.01;98757.45;131231;1255;107175;-84
2024/04/03 05:27:34;;;;;;;3.50;2.70;;;;;;;10.32;75.51;98756.80;131177;1250;107085;-84
2024/04/03 05:30:39;;;;;;;5.50;2.90;;;;;;;10.34;75.56;98759.73;131379;1250;107845;-83
2024/04/03 05:33:44;;;;;;;3.10;2.80;;;;;;;10.37;75.54;98759.77;131512;1251;108785;-82
2024/04/03 05:36:49;;;;;;;3.60;2.30;;;;;;;10.40;75.71;98757.95;131225;1254;106529;-83
2024/04/03 05:39:55;;;;;;;3.00;2.40;;;;;;;10.48;75.79;98757.63;131271;1254;108968;-81
2024/04/03 05:43:00;;;;;;;3.00;2.20;;;;;;;10.58;75.51;98764.98;131281;1254;107669;-82
2024/04/03 05:46:06;;;;;;;2.60;2.20;;;;;;;10.65;75.60;98763.05;131331;1254;108762;-85
2024/04/03 05:49:11;;;;;;;3.00;2.50;;;;;;;10.66;75.13;98773.39;131393;1254;108438;-84
2024/04/03 05:52:16;;;;;;;2.90;2.50;;;;;;;10.61;75.14;98768.99;131202;1256;107227;-83
2024/04/03 05:55:22;;;;;;;4.40;2.60;;;;;;;10.58;75.32;98776.81;131683;1255;105486;-82
2024/04/03 05:58:27;;;;;;;2.70;2.50;;;;;;;10.57;75.08;98774.87;131675;1254;106493;-82
2024/04/03 06:01:33;;;;;;;36.40;23.90;;;;;;;10.52;74.75;98772.60;131620;1250;107482;-82
2024/04/03 06:04:39;;;;;;;125.40;47.80;;;;;;;10.51;75.08;98778.42;131539;1251;108742;-82
2024/04/03 06:07:45;;;;;;;33.10;15.30;;;;;;;10.52;75.23;98777.56;131413;1254;108713;-82
2024/04/03 06:10:50;;;;;;;43.80;16.70;;;;;;;10.58;74.98;98773.72;131005;1257;106520;-82
2024/04/03 06:13:56;;;;;;;55.80;19.20;;;;;;;10.62;75.22;98776.39;131054;1255;106659;-82
2024/04/03 06:17:03;;;;;;;20.10;7.50;;;;;;;10.74;75.20;98778.64;131384;1253;107702;-82
2024/04/03 06:20:09;;;;;;;31.20;10.40;;;;;;;10.87;74.91;98774.66;131043;1256;106360;-83
2024/04/03 06:23:14;;;;;;;21.10;7.50;;;;;;;11.00;74.92;98778.14;130991;1256;107633;-82
2024/04/03 06:26:20;;;;;;;12.50;4.60;;;;;;;11.06;74.80;98775.20;130995;1256;106483;-83
2024/04/03 06:29:25;;;;;;;52.70;15.30;;;;;;;11.02;74.53;98777.64;131071;1256;106364;-83
2024/04/03 06:32:30;;;;;;;10.90;4.40;;;;;;;10.93;74.96;98780.26;131407;1251;106483;-85
2024/04/03 06:35:36;;;;;;;6.90;5.10;;;;;;;10.82;74.84;98776.41;131110;1254;108728;-84
2024/04/03 06:38:41;;;;;;;92.70;44.80;;;;;;;10.85;74.78;98782.31;131338;1256;108386;-83
2024/04/03 06:41:47;;;;;;;98.20;53.50;;;;;;;10.84;75.08;98788.98;131111;1254;108631;-84
2024/04/03 06:44:53;;;;;;;101.20;46.70;;;;;;;10.82;74.99;98789.59;131216;1256;108432;-84
2024/04/03 06:47:58;;;;;;;89.80;39.20;;;;;;;10.81;75.20;98783.64;131053;1257;107807;-84
2024/04/03 06:51:04;;;;;;;158.70;65.60;;;;;;;10.89;75.86;98785.18;131287;1250;107736;-86
2024/04/03 06:54:09;;;;;;;107.20;53.70;;;;;;;10.97;75.85;98785.75;131256;1256;106520;-83
2024/04/03 06:57:14;;;;;;;168.70;89.30;;;;;;;11.08;76.03;98796.65;131058;1256;107812;-84
2024/04/03 07:00:20;;;;;;;114.60;72.60;;;;;;;11.19;76.05;98804.48;131109;1251;108650;-83
2024/04/03 07:03:26;;;;;;;39.20;28.30;;;;;;;11.24;76.29;98809.48;131100;1251;108629;-84
2024/04/03 07:06:33;;;;;;;17.90;14.80;;;;;;;11.23;76.47;98814.36;131212;1255;106549;-84
2024/04/03 07:09:38;;;;;;;7.10;6.10;;;;;;;11.17;76.61;98818.48;131391;1250;107234;-84
2024/04/03 07:12:43;;;;;;;10.00;7.00;;;;;;;11.19;76.74;98817.86;131214;1256;106274;-83
2024/04/03 07:15:49;;;;;;;9.90;7.90;;;;;;;11.27;76.90;98820.50;131142;1256;108612;-84
2024/04/03 07:18:58;;;;;;;29.20;21.60;;;;;;;11.31;77.15;98818.20;131053;1256;108217;-82
2024/04/03 07:22:04;;;;;;;88.00;67.20;;;;;;;11.28;77.36;98819.04;131198;1256;108783;-83
2024/04/03 07:25:11;;;;;;;42.40;34.00;;;;;;;11.29;77.31;98816.95;131352;1256;108445;-84
2024/04/03 07:28:16;;;;;;;30.00;24.80;;;;;;;11.44;78.03;98812.91;131255;1256;108694;-83
2024/04/03 07:31:21;;;;;;;19.50;16.10;;;;;;;11.69;77.77;98811.95;131373;1254;106614;-83
2024/04/03 07:34:27;;;;;;;10.60;8.90;;;;;;;11.87;77.47;98809.30;131259;1254;106473;-84
2024/04/03 07:37:33;;;;;;;9.80;6.80;;;;;;;12.08;77.55;98809.85;131135;1254;107528;-85
2024/04/03 07:40:38;;;;;;;9.20;7.70;;;;;;;12.20;77.00;98807.02;131289;1253;107793;-84
2024/04/03 07:43:43;;;;;;;5.70;4.80;;;;;;;12.22;76.55;98808.44;131114;1256;107783;-83
2024/04/03 07:46:50;;;;;;;5.90;5.10;;;;;;;12.13;76.01;98807.33;131339;1250;107476;-85
2024/04/03 07:49:55;;;;;;;7.00;6.00;;;;;;;11.99;76.11;98818.67;131154;1256;107538;-84
2024/04/03 07:53:01;;;;;;;7.70;6.80;;;;;;;11.94;76.63;98825.89;131109;1256;108464;-83
2024/04/03 07:56:07;;;;;;;7.00;4.80;;;;;;;11.86;76.47;98834.42;131223;1256;107512;-83
2024/04/03 08:42:58;;;;;;;4.00;3.60;;;;;;;12.97;74.90;98837.63;128130;1284;648524;-82
2024/04/03 08:46:05;;;;;;;5.20;3.80;;;;;;;13.17;73.06;98841.58;130014;1263;173749;-82
2024/04/03 08:49:11;;;;;;;6.20;4.20;;;;;;;13.17;73.37;98840.67;130126;1265;106911;-82
2024/04/03 08:52:17;;;;;;;7.70;4.00;;;;;;;13.23;73.12;98843.19;130122;1264;106488;-83
2024/04/03 08:55:24;;;;;;;4.70;3.30;;;;;;;13.26;72.74;98847.60;130678;1254;106247;-82
2024/04/03 08:58:30;;;;;;;5.70;3.80;;;;;;;13.16;71.59;98852.41;130665;1257;107403;-83
2024/04/03 09:01:35;;;;;;;7.00;6.30;;;;;;;12.99;72.25;98853.33;130754;1256;108768;-82
2024/04/03 09:04:41;;;;;;;6.70;4.30;;;;;;;12.85;71.56;98854.54;130946;1258;106794;-84
2024/04/03 09:07:46;;;;;;;8.40;5.30;;;;;;;12.73;72.03;98856.11;130784;1277;107710;-83
2024/04/03 09:10:56;;;;;;;5.70;4.80;;;;;;;12.72;72.15;98857.67;130797;1256;108681;-82
2024/04/03 09:14:01;;;;;;;6.80;4.10;;;;;;;12.67;71.72;98865.86;130859;1256;106641;-83
2024/04/03 09:17:07;;;;;;;3.80;3.10;;;;;;;12.50;70.84;98868.54;131296;1256;107863;-83
2024/04/03 09:20:22;;;;;;;2.80;1.70;;;;;;;12.22;70.43;98895.77;134879;1254;108524;-83
2024/04/03 09:23:31;;;;;;;1.90;1.20;;;;;;;11.60;69.44;98918.70;134861;1254;108291;-83
2024/04/03 09:26:42;;;;;;;2.20;1.20;;;;;;;11.03;70.35;98928.25;135247;1251;107131;-83
2024/04/03 09:29:55;;;;;;;2.50;1.40;;;;;;;10.46;71.39;98939.83;131554;1254;107801;-83
2024/04/03 09:32:59;;;;;;;;;;;;;;;10.10;74.52;98943.98;131259;1262;107756;-83
2024/04/03 09:36:10;;;;;;;2.00;1.20;;;;;;;9.81;76.14;98947.30;131214;1255;107558;-83
2024/04/03 09:39:16;;;;;;;3.30;1.40;;;;;;;9.45;76.73;98952.11;131285;1255;106380;-83
2024/04/03 09:42:22;;;;;;;2.60;1.20;;;;;;;9.18;78.61;98956.60;130989;1256;107750;-82
2024/04/03 09:45:29;;;;;;;2.60;1.40;;;;;;;8.98;78.01;98965.86;131028;1253;107700;-82
2024/04/03 09:48:39;;;;;;;2.70;1.20;;;;;;;8.87;78.35;98963.75;131037;1264;107677;-83
2024/04/03 09:51:44;;;;;;;3.50;1.60;;;;;;;8.87;77.57;98967.75;130881;1255;106253;-82
2024/04/03 09:54:51;;;;;;;3.40;1.80;;;;;;;8.97;77.27;98971.81;130937;1255;107696;-83
2024/04/03 09:58:02;;;;;;;4.30;1.20;;;;;;;9.07;77.72;98976.42;130928;1253;107756;-83
2024/04/03 10:01:09;;;;;;;2.60;1.50;;;;;;;9.18;77.37;98979.98;131003;1250;106335;-83
2024/04/03 10:04:15;;;;;;;41.60;25.00;;;;;;;9.36;77.36;98983.73;131302;1255;106551;-82
2024/04/03 10:07:22;;;;;;;14.20;6.20;;;;;;;9.43;76.74;98985.90;131104;1256;107720;-82
2024/04/03 10:10:29;;;;;;;3.70;1.70;;;;;;;9.44;76.81;98986.83;131053;1250;106643;-82
2024/04/03 10:13:38;;;;;;;3.00;1.50;;;;;;;9.41;76.87;98989.91;131023;1254;107479;-82
2024/04/03 10:16:44;;;;;;;3.40;2.20;;;;;;;9.40;76.85;98996.95;131131;1257;106679;-82
2024/04/03 10:19:49;;;;;;;3.90;2.20;;;;;;;9.45;77.54;99001.91;131319;1255;106638;-82
2024/04/03 10:22:55;;;;;;;2.50;1.70;;;;;;;9.44;78.21;99005.10;131306;1255;108638;-82
2024/04/03 10:26:01;;;;;;;10.50;7.10;;;;;;;9.42;78.82;98998.33;131026;1255;108669;-83
2024/04/03 10:29:07;;;;;;;11.80;4.50;;;;;;;9.63;78.43;98998.73;131040;1255;106594;-83
2024/04/03 10:32:16;;;;;;;4.50;2.30;;;;;;;9.84;78.28;99005.92;131071;1255;108519;-83
2024/04/03 10:35:22;;;;;;;2.70;1.60;;;;;;;9.98;78.24;99004.03;131089;1251;107183;-83
2024/04/03 10:38:27;;;;;;;7.40;3.60;;;;;;;10.16;78.20;98995.33;131094;1255;106782;-83
2024/04/03 10:41:33;;;;;;;5.90;3.30;;;;;;;10.44;77.88;99007.84;131028;1256;107383;-82
2024/04/03 10:44:41;;;;;;;5.50;3.10;;;;;;;10.34;77.86;99017.71;131036;1255;107641;-83
2024/04/03 10:47:49;;;;;;;3.80;2.00;;;;;;;10.20;78.20;99025.59;131049;1250;106338;-83
2024/04/03 10:50:54;;;;;;;5.90;3.40;;;;;;;10.18;78.56;99025.14;131046;1256;106635;-82
2024/04/03 10:54:00;;;;;;;4.50;2.80;;;;;;;10.19;78.98;99026.59;131013;1255;106547;-83
2024/04/03 10:57:07;;;;;;;24.90;10.30;;;;;;;10.18;79.03;99030.86;131025;1256;108810;-83
2024/04/03 11:00:16;;;;;;;7.40;3.00;;;;;;;10.13;79.37;99038.59;131072;1255;107830;-82
2024/04/03 11:03:22;;;;;;;5.40;2.80;;;;;;;10.03;79.55;99035.84;131267;1255;107149;-83
2024/04/03 11:06:28;;;;;;;3.10;1.90;;;;;;;10.00;79.85;99036.20;131246;1255;106756;-83
2024/04/03 11:09:35;;;;;;;4.20;1.80;;;;;;;9.88;80.61;99045.25;131249;1249;107770;-85
2024/04/03 11:12:41;;;;;;;4.50;2.50;;;;;;;9.66;81.38;99043.65;131364;1254;107398;-83
2024/04/03 11:15:52;;;;;;;5.50;2.60;;;;;;;9.63;81.28;99047.89;131104;1265;108415;-82
2024/04/03 11:18:58;;;;;;;7.00;3.00;;;;;;;9.63;81.71;99051.33;131318;1255;107765;-81
2024/04/03 11:22:03;;;;;;;14.60;5.50;;;;;;;9.69;81.71;99048.33;131252;1250;107825;-82
2024/04/03 11:25:12;;;;;;;9.40;4.00;;;;;;;9.83;81.40;99049.02;131212;1255;107122;-82
2024/04/03 11:28:19;;;;;;;6.50;2.80;;;;;;;10.08;81.54;99056.95;131113;1255;107074;-82
2024/04/03 11:31:25;;;;;;;10.00;4.00;;;;;;;10.36;81.28;99051.31;131059;1250;108527;-82
2024/04/03 11:34:33;;;;;;;21.40;10.40;;;;;;;10.69;81.49;99054.80;131207;1255;106893;-82
2024/04/03 11:37:39;;;;;;;21.30;8.40;;;;;;;10.96;80.99;99054.86;131117;1254;109366;-82
2024/04/03 11:40:44;;;;;;;9.40;4.20;;;;;;;11.11;80.04;99052.71;130986;1254;106726;-82
2024/04/03 11:43:49;;;;;;;7.10;3.80;;;;;;;11.17;78.98;99052.40;131124;1256;107747;-82
2024/04/03 11:46:54;;;;;;;4.90;3.20;;;;;;;11.18;78.50;99064.58;131163;1253;106781;-83
2024/04/03 11:50:00;;;;;;;6.80;3.60;;;;;;;11.10;78.17;99064.84;131062;1250;108505;-82
2024/04/03 11:53:05;;;;;;;5.30;3.30;;;;;;;11.05;78.39;99076.05;131047;1256;108426;-82
2024/04/03 11:56:11;;;;;;;9.20;4.30;;;;;;;10.91;78.91;99077.49;131094;1255;108002;-82
2024/04/03 11:59:16;;;;;;;12.30;5.80;;;;;;;10.92;79.03;99071.05;131240;1254;106394;-82
2024/04/03 12:02:21;;;;;;;10.40;5.20;;;;;;;10.94;79.29;99074.05;131067;1255;107130;-83
2024/04/03 12:05:26;;;;;;;13.70;6.90;;;;;;;11.03;78.70;99073.83;131121;1251;107780;-83
2024/04/03 12:08:32;;;;;;;16.50;7.50;;;;;;;11.08;78.54;99083.77;131067;1255;106695;-84
2024/04/03 12:11:37;;;;;;;9.20;5.10;;;;;;;11.17;78.60;99083.14;131277;1255;108739;-84
2024/04/03 12:14:43;;;;;;;8.30;4.80;;;;;;;11.37;78.55;99083.92;131080;1254;106619;-83
2024/04/03 12:17:48;;;;;;;15.80;7.50;;;;;;;11.45;77.85;99083.48;131146;1255;106532;-82
2024/04/03 12:20:54;;;;;;;15.80;6.80;;;;;;;11.55;77.64;99080.72;131306;1255;106528;-82
2024/04/03 12:24:00;;;;;;;5.20;3.30;;;;;;;11.60;77.57;99072.56;131061;1254;106641;-82
2024/04/03 12:27:06;;;;;;;5.30;2.90;;;;;;;11.62;77.12;99072.33;131315;1255;106479;-82
2024/04/03 12:30:12;;;;;;;5.20;3.40;;;;;;;11.74;77.23;99067.14;131208;1253;107518;-82
2024/04/03 12:33:18;;;;;;;11.60;5.90;;;;;;;11.91;75.92;99062.85;131162;1254;107847;-82
2024/04/03 12:36:24;;;;;;;4.80;3.20;;;;;;;12.10;76.03;99056.86;131179;1254;107762;-83
2024/04/03 12:39:29;;;;;;;9.00;5.40;;;;;;;12.43;75.74;99060.31;131258;1250;108703;-83
2024/04/03 12:42:34;;;;;;;18.40;8.40;;;;;;;12.63;73.43;99059.05;131059;1256;107612;-82
2024/04/03 12:45:39;;;;;;;7.40;4.30;;;;;;;12.53;72.69;99073.35;131346;1255;108728;-82
2024/04/03 12:48:45;;;;;;;5.00;3.20;;;;;;;12.45;72.71;99083.25;131304;1254;107928;-82
2024/04/03 12:51:50;;;;;;;4.80;3.20;;;;;;;12.33;71.93;99091.48;131332;1254;107992;-83
2024/04/03 12:54:55;;;;;;;5.00;3.80;;;;;;;12.15;70.69;99101.28;131280;1250;106612;-83
2024/04/03 12:58:01;;;;;;;4.40;3.00;;;;;;;11.92;71.63;99100.04;131144;1253;107567;-83
2024/04/03 13:01:07;;;;;;;7.20;3.90;;;;;;;11.63;71.24;99108.01;131074;1250;108731;-83
2024/04/03 13:04:12;;;;;;;5.70;3.70;;;;;;;11.31;70.99;99115.69;131093;1258;107581;-82
2024/04/03 13:07:18;;;;;;;5.40;3.60;;;;;;;11.07;71.47;99124.61;131030;1255;107410;-83
2024/04/03 13:10:24;;;;;;;43.10;18.70;;;;;;;10.98;71.85;99120.09;131192;1254;108697;-84
2024/04/03 13:13:30;;;;;;;7.90;4.60;;;;;;;11.02;71.71;99131.30;131337;1255;107716;-84
2024/04/03 13:16:35;;;;;;;6.30;4.50;;;;;;;10.98;71.28;99151.42;131397;1264;108133;-84
2024/04/03 13:19:40;;;;;;;6.60;3.60;;;;;;;10.81;71.21;99165.54;131384;1254;107597;-84
2024/04/03 13:22:46;;;;;;;5.20;3.60;;;;;;;10.54;70.38;99169.24;131341;1254;107519;-84
2024/04/03 13:25:52;;;;;;;4.80;3.40;;;;;;;10.44;71.41;99186.11;131229;1254;106552;-84
2024/04/03 13:28:58;;;;;;;5.30;3.40;;;;;;;10.50;71.90;99179.84;131226;1255;108679;-84
2024/04/03 13:32:03;;;;;;;7.70;4.90;;;;;;;10.58;71.85;99189.91;131242;1254;108820;-84
2024/04/03 13:35:08;;;;;;;5.60;3.50;;;;;;;10.56;70.94;99194.14;131156;1256;107743;-84
2024/04/03 13:38:15;;;;;;;5.00;3.40;;;;;;;10.49;70.32;99189.04;131091;1254;108524;-82
2024/04/03 13:41:21;;;;;;;4.90;3.50;;;;;;;10.46;70.16;99189.46;131048;1256;107676;-82
2024/04/03 13:44:26;;;;;;;5.30;3.50;;;;;;;10.50;69.76;99197.25;131066;1256;108713;-82
2024/04/03 13:47:31;;;;;;;6.00;3.90;;;;;;;10.42;69.11;99194.72;131056;1256;107505;-83
2024/04/03 13:50:37;;;;;;;4.50;3.10;;;;;;;10.52;69.86;99192.64;131088;1256;106651;-83
2024/04/03 13:53:42;;;;;;;4.00;2.90;;;;;;;10.63;70.28;99198.94;131469;1264;108615;-83
2024/04/03 13:56:47;;;;;;;3.80;2.80;;;;;;;10.72;69.07;99204.41;131184;1263;108546;-82
2024/04/03 13:59:54;;;;;;;6.70;3.30;;;;;;;10.66;69.02;99208.92;131401;1262;107523;-83
2024/04/03 14:03:00;;;;;;;5.90;3.30;;;;;;;10.40;67.60;99225.95;131479;1255;107716;-83
2024/04/03 14:06:06;;;;;;;9.80;5.20;;;;;;;10.04;67.78;99239.32;133063;1250;108824;-83
2024/04/03 14:09:48;;;;;;;8.20;5.50;;;;;;;9.77;67.85;99246.79;131724;1252;108742;-83
2024/04/03 14:12:55;;;;;;;7.10;3.60;;;;;;;9.54;67.32;99263.22;131153;1253;108005;-83
2024/04/03 14:16:00;;;;;;;15.40;8.70;;;;;;;9.43;67.26;99264.42;131221;1255;106716;-84
2024/04/03 14:19:06;;;;;;;8.30;4.70;;;;;;;9.37;67.39;99270.58;131146;1263;108325;-84
2024/04/03 14:22:11;;;;;;;38.70;21.70;;;;;;;9.38;67.53;99278.77;131183;1254;108625;-82
2024/04/03 14:25:20;;;;;;;5.90;4.00;;;;;;;9.38;66.76;99286.16;132381;1251;106509;-86
2024/04/03 14:28:25;;;;;;;8.60;5.30;;;;;;;9.35;66.21;99289.65;132038;1251;106372;-88
2024/04/03 14:31:31;;;;;;;32.30;18.30;;;;;;;9.36;66.03;99293.84;131771;1250;107665;-85
2024/04/03 14:34:36;;;;;;;8.80;6.10;;;;;;;9.42;65.81;99301.13;131290;1254;106652;-84
2024/04/03 14:37:42;;;;;;;9.40;5.70;;;;;;;9.47;65.47;99300.95;132766;1253;106793;-85
2024/04/03 14:40:48;;;;;;;15.30;7.90;;;;;;;9.55;65.69;99310.02;131869;1251;108734;-87
2024/04/03 14:43:53;;;;;;;10.50;7.40;;;;;;;9.70;66.03;99311.85;132088;1248;107485;-85
2024/04/03 14:46:59;;;;;;;19.60;12.80;;;;;;;9.82;65.55;99320.70;131850;1253;108743;-85
2024/04/03 14:50:07;;;;;;;5.80;3.00;;;;;;;9.87;64.42;99327.21;131615;1254;106779;-84
2024/04/03 14:53:14;;;;;;;16.60;10.90;;;;;;;9.80;63.46;99330.67;131707;1254;106524;-84
2024/04/03 14:56:19;;;;;;;6.60;5.00;;;;;;;9.76;62.99;99336.80;132710;1250;106758;-85
2024/04/03 14:59:25;;;;;;;20.60;16.20;;;;;;;9.67;62.42;99336.16;131528;1253;107032;-85
2024/04/03 15:02:31;;;;;;;77.30;30.20;;;;;;;9.62;62.49;99341.50;131382;1250;108709;-85
2024/04/03 15:05:37;;;;;;;11.60;6.70;;;;;;;9.58;62.56;99343.91;131333;1259;108528;-85